Time;durP1;ratioP1;P1;durP2;ratioP2;P2;SDS_P1;SDS_P2;PMS_P1;PMS_P2;Temp;Humidity;BMP_temperature;BMP_pressure;BME280_temperature;BME280_humidity;BME280_pressure;Samples;Min_cycle;Max_cycle;Signal;HPM_P1;HPM_P2
2023/04/30 00:01:01;;;;;;;;;;;16.70;99.90;;;;;;5071966;28;19927;-74
2023/04/30 00:03:27;;;;;;;;;;;16.70;99.90;;;;;;5072948;28;19905;-73
2023/04/30 00:05:53;;;;;;;;;;;16.80;99.90;;;;;;5072690;28;20333;-74
2023/04/30 00:08:19;;;;;;;;;;;16.70;99.90;;;;;;5072344;28;19905;-74
2023/04/30 00:10:45;;;;;;;;;;;16.70;99.90;;;;;;5072655;28;19904;-73
2023/04/30 00:13:12;;;;;;;;;;;16.60;99.90;;;;;;5071399;28;19905;-73
2023/04/30 00:15:40;;;;;;;;;;;16.50;99.90;;;;;;5072657;28;19904;-73
2023/04/30 00:18:06;;;;;;;;;;;16.40;99.90;;;;;;5072905;28;19905;-73
2023/04/30 00:20:34;;;;;;;;;;;16.40;99.90;;;;;;5072516;28;19919;-74
2023/04/30 00:23:00;;;;;;;;;;;16.30;99.90;;;;;;5072576;28;19911;-73
2023/04/30 00:25:26;;;;;;;;;;;16.30;99.90;;;;;;5072290;28;19904;-73
2023/04/30 00:27:51;;;;;;;;;;;16.20;99.90;;;;;;5068088;28;19904;-74
2023/04/30 00:30:17;;;;;;;;;;;16.20;99.90;;;;;;5070434;28;19931;-73
2023/04/30 00:32:44;;;;;;;;;;;16.20;99.90;;;;;;5070741;28;20254;-73
2023/04/30 00:35:10;;;;;;;;;;;16.20;99.90;;;;;;5070112;28;20003;-74
2023/04/30 00:37:36;;;;;;;;;;;16.20;99.90;;;;;;5070683;28;19948;-73
2023/04/30 00:40:02;;;;;;;;;;;16.20;99.90;;;;;;5071881;28;19911;-73
2023/04/30 00:42:28;;;;;;;;;;;16.20;99.90;;;;;;5071830;28;20034;-74
2023/04/30 00:44:54;;;;;;;;;;;16.30;99.90;;;;;;5070442;28;20368;-75
2023/04/30 00:47:20;;;;;;;;;;;16.40;99.90;;;;;;5072032;28;19904;-74
2023/04/30 00:49:46;;;;;;;;;;;16.50;99.90;;;;;;5071782;28;19955;-74
2023/04/30 00:52:13;;;;;;;;;;;16.60;99.90;;;;;;5072275;28;20015;-73
2023/04/30 00:54:39;;;;;;;;;;;16.50;99.90;;;;;;5071821;28;19922;-74
2023/04/30 00:57:06;;;;;;;;;;;16.50;99.90;;;;;;5072031;28;19908;-74
2023/04/30 00:59:32;;;;;;;;;;;16.40;99.90;;;;;;5071784;28;19904;-73
2023/04/30 01:01:59;;;;;;;;;;;16.50;99.90;;;;;;5071098;28;19913;-75
2023/04/30 01:04:26;;;;;;;;;;;16.40;99.90;;;;;;5071226;28;20339;-73
2023/04/30 01:06:52;;;;;;;;;;;16.50;99.90;;;;;;5071772;28;19904;-74
2023/04/30 01:09:18;;;;;;;;;;;16.40;99.90;;;;;;5071503;28;19912;-74
2023/04/30 01:12:06;;;;;;;;;;;16.30;99.90;;;;;;5071575;28;19909;-73
2023/04/30 01:14:35;;;;;;;;;;;16.20;99.90;;;;;;5072039;28;20257;-75
2023/04/30 01:17:07;;;;;;;;;;;16.00;99.90;;;;;;5071589;28;19965;-74
2023/04/30 01:19:46;;;;;;;;;;;15.90;99.90;;;;;;5072055;28;20042;-72
2023/04/30 01:22:34;;;;;;;;;;;16.00;99.90;;;;;;5070155;28;20371;-74
2023/04/30 01:25:01;;;;;;;;;;;16.00;99.90;;;;;;5071613;28;20003;-75
2023/04/30 01:27:30;;;;;;;;;;;15.80;99.90;;;;;;5071916;28;19908;-74
2023/04/30 01:29:56;;;;;;;;;;;15.80;99.90;;;;;;5071480;28;19983;-73
2023/04/30 01:32:23;;;;;;;;;;;15.90;99.90;;;;;;5071423;28;20369;-75
2023/04/30 01:34:48;;;;;;;;;;;16.00;99.90;;;;;;5071739;28;19904;-75
2023/04/30 01:37:26;;;;;;;;;;;15.90;99.90;;;;;;5071525;28;19912;-74
2023/04/30 01:40:11;;;;;;;;;;;16.00;99.90;;;;;;5071334;28;20142;-74
2023/04/30 01:42:44;;;;;;;;;;;16.10;99.90;;;;;;5071400;28;19924;-73
2023/04/30 01:45:13;;;;;;;;;;;16.20;99.90;;;;;;5071655;28;20409;-72
2023/04/30 01:47:43;;;;;;;;;;;16.30;99.90;;;;;;5071656;28;19904;-74
2023/04/30 01:50:16;;;;;;;;;;;16.30;99.90;;;;;;5071334;28;19905;-73
2023/04/30 01:52:51;;;;;;;;;;;16.40;99.90;;;;;;5071504;28;19908;-73
2023/04/30 01:55:19;;;;;;;;;;;16.50;99.90;;;;;;5071184;28;19911;-74
2023/04/30 01:57:53;;;;;;;;;;;16.40;99.90;;;;;;5071223;28;19912;-74
2023/04/30 02:00:19;;;;;;;;;;;16.40;99.90;;;;;;5071174;28;19914;-74
2023/04/30 02:02:44;;;;;;;;;;;16.50;99.90;;;;;;5071140;28;19990;-74
2023/04/30 02:05:10;;;;;;;;;;;16.60;99.90;;;;;;5071458;28;19953;-73
2023/04/30 02:07:40;;;;;;;;;;;16.60;99.90;;;;;;5071180;28;19990;-73
2023/04/30 02:10:07;;;;;;;;;;;16.70;99.90;;;;;;5071020;28;19955;-75
2023/04/30 02:12:33;;;;;;;;;;;16.80;99.90;;;;;;5071140;28;20000;-74
2023/04/30 02:14:59;;;;;;;;;;;16.80;99.90;;;;;;5071524;28;20013;-75
2023/04/30 02:17:25;;;;;;;;;;;16.90;99.90;;;;;;5071187;28;20352;-73
2023/04/30 02:19:50;;;;;;;;;;;16.90;99.90;;;;;;5071191;28;19940;-74
2023/04/30 02:22:16;;;;;;;;;;;16.90;99.90;;;;;;5071340;28;19938;-74
2023/04/30 02:24:43;;;;;;;;;;;16.90;99.90;;;;;;5072364;28;19953;-75
2023/04/30 02:27:08;;;;;;;;;;;17.00;99.90;;;;;;5074950;28;20226;-73
2023/04/30 02:29:34;;;;;;;;;;;16.90;99.90;;;;;;5075053;28;19911;-74
2023/04/30 02:32:00;;;;;;;;;;;16.70;99.90;;;;;;5074467;28;19935;-73
2023/04/30 02:34:26;;;;;;;;;;;16.60;99.90;;;;;;5074453;28;19904;-73
2023/04/30 02:36:52;;;;;;;;;;;16.30;99.90;;;;;;5074577;28;20367;-72
2023/04/30 02:39:18;;;;;;;;;;;16.30;99.90;;;;;;5074545;28;19911;-74
2023/04/30 02:41:43;;;;;;;;;;;16.30;99.90;;;;;;5074076;28;19977;-74
2023/04/30 02:44:10;;;;;;;;;;;16.30;99.90;;;;;;5074758;28;19915;-74
2023/04/30 02:46:36;;;;;;;;;;;16.40;99.90;;;;;;5074316;28;19916;-74
2023/04/30 02:49:02;;;;;;;;;;;16.40;99.90;;;;;;5074592;28;20363;-73
2023/04/30 02:51:27;;;;;;;;;;;16.40;99.90;;;;;;5090087;28;20210;-74
2023/04/30 02:53:53;;;;;;;;;;;16.50;99.90;;;;;;5074156;28;19915;-74
2023/04/30 02:56:20;;;;;;;;;;;16.60;99.90;;;;;;5074565;28;19995;-74
2023/04/30 02:58:46;;;;;;;;;;;16.70;99.90;;;;;;5074147;28;20318;-73
2023/04/30 03:01:12;;;;;;;;;;;16.80;99.90;;;;;;5074122;28;19920;-74
2023/04/30 03:03:38;;;;;;;;;;;16.80;99.90;;;;;;5074573;28;19977;-74
2023/04/30 03:06:04;;;;;;;;;;;16.80;99.90;;;;;;5073988;28;19995;-75
2023/04/30 03:08:32;;;;;;;;;;;16.90;99.90;;;;;;5073385;28;19904;-73
2023/04/30 03:10:58;;;;;;;;;;;16.80;99.90;;;;;;5073841;28;19999;-74
2023/04/30 03:13:26;;;;;;;;;;;16.80;99.90;;;;;;5073837;28;19909;-74
2023/04/30 03:15:59;;;;;;;;;;;16.70;99.90;;;;;;5074278;28;19995;-73
2023/04/30 03:18:25;;;;;;;;;;;16.70;99.90;;;;;;5073958;28;19954;-74
2023/04/30 03:20:52;;;;;;;;;;;16.70;99.90;;;;;;5073675;28;19912;-73
2023/04/30 03:23:18;;;;;;;;;;;16.70;99.90;;;;;;5073646;28;19980;-73
2023/04/30 03:25:43;;;;;;;;;;;16.70;99.90;;;;;;5073948;28;20271;-73
2023/04/30 03:28:09;;;;;;;;;;;16.60;99.90;;;;;;5074093;28;19904;-73
2023/04/30 03:30:35;;;;;;;;;;;16.60;99.90;;;;;;5072665;28;19947;-73
2023/04/30 03:33:01;;;;;;;;;;;16.50;99.90;;;;;;5072776;28;19904;-73
2023/04/30 03:35:27;;;;;;;;;;;16.50;99.90;;;;;;5071147;28;20233;-74
2023/04/30 03:37:54;;;;;;;;;;;16.60;99.90;;;;;;5073491;28;20224;-74
2023/04/30 03:40:20;;;;;;;;;;;16.70;99.90;;;;;;5071664;28;20267;-74
2023/04/30 03:42:46;;;;;;;;;;;16.80;99.90;;;;;;5073126;28;20020;-74
2023/04/30 03:45:12;;;;;;;;;;;16.80;99.90;;;;;;5073660;28;19904;-73
2023/04/30 03:47:37;;;;;;;;;;;16.80;99.90;;;;;;5073392;28;20345;-74
2023/04/30 03:50:03;;;;;;;;;;;16.80;99.90;;;;;;5073377;28;19958;-73
2023/04/30 03:52:30;;;;;;;;;;;16.70;99.90;;;;;;5073113;28;19950;-74
2023/04/30 03:54:56;;;;;;;;;;;16.80;99.90;;;;;;5073040;28;19911;-73
2023/04/30 03:57:22;;;;;;;;;;;16.90;99.90;;;;;;5073064;28;20006;-75
2023/04/30 03:59:49;;;;;;;;;;;17.00;99.90;;;;;;5072962;28;19931;-74
2023/04/30 04:02:15;;;;;;;;;;;17.10;99.90;;;;;;5072291;28;19935;-73
2023/04/30 04:04:41;;;;;;;;;;;17.20;99.90;;;;;;5070156;28;20390;-73
2023/04/30 04:07:08;;;;;;;;;;;17.30;99.90;;;;;;5071766;28;20319;-72
2023/04/30 04:09:34;;;;;;;;;;;17.30;99.90;;;;;;5073307;28;20348;-75
2023/04/30 04:12:00;;;;;;;;;;;17.40;99.90;;;;;;5072463;28;19911;-74
2023/04/30 04:14:26;;;;;;;;;;;17.40;99.90;;;;;;5073354;28;20003;-75
2023/04/30 04:16:52;;;;;;;;;;;17.50;99.90;;;;;;5072604;28;19904;-76
2023/04/30 04:19:17;;;;;;;;;;;17.60;99.90;;;;;;5072732;28;20358;-74
2023/04/30 04:21:47;;;;;;;;;;;17.70;99.90;;;;;;5072187;28;20296;-72
2023/04/30 04:24:19;;;;;;;;;;;17.90;99.90;;;;;;5069984;28;19955;-72
2023/04/30 04:26:45;;;;;;;;;;;18.10;99.90;;;;;;5073312;28;19991;-73
2023/04/30 04:29:11;;;;;;;;;;;18.10;99.90;;;;;;5073526;28;19912;-76
2023/04/30 04:31:37;;;;;;;;;;;18.00;99.90;;;;;;5073101;28;19943;-75
2023/04/30 04:34:03;;;;;;;;;;;18.00;99.90;;;;;;5073105;28;19905;-75
2023/04/30 04:36:29;;;;;;;;;;;18.00;99.90;;;;;;5073439;28;19905;-76
2023/04/30 04:38:56;;;;;;;;;;;18.00;99.90;;;;;;5074218;28;19976;-76
2023/04/30 04:41:25;;;;;;;;;;;18.00;99.90;;;;;;5073450;28;19919;-79
2023/04/30 04:43:51;;;;;;;;;;;18.00;99.90;;;;;;5073840;28;19912;-78
2023/04/30 04:46:17;;;;;;;;;;;18.20;99.90;;;;;;5073092;28;19904;-76
2023/04/30 04:48:43;;;;;;;;;;;18.20;99.90;;;;;;5071096;28;20006;-76
2023/04/30 04:51:09;;;;;;;;;;;18.10;99.90;;;;;;5071662;28;19915;-76
2023/04/30 04:53:35;;;;;;;;;;;18.20;99.90;;;;;;5072208;28;20356;-76
2023/04/30 04:56:01;;;;;;;;;;;18.20;99.90;;;;;;5072446;28;19904;-75
2023/04/30 04:58:27;;;;;;;;;;;18.10;99.90;;;;;;5072894;28;19911;-83
2023/04/30 05:00:53;;;;;;;;;;;18.10;99.90;;;;;;5071183;28;19916;-80
2023/04/30 05:03:19;;;;;;;;;;;18.10;99.90;;;;;;5071498;28;19904;-80
2023/04/30 05:05:45;;;;;;;;;;;18.10;99.90;;;;;;5073286;28;19915;-89
2023/04/30 05:08:11;;;;;;;;;;;18.00;99.90;;;;;;5072669;28;19911;-81
2023/04/30 05:10:37;;;;;;;;;;;17.90;99.90;;;;;;5087114;22;19925;-82
2023/04/30 05:13:03;;;;;;;;;;;17.90;99.90;;;;;;5070032;28;19966;-84
2023/04/30 05:15:29;;;;;;;;;;;17.80;99.90;;;;;;5053639;28;19916;-84
2023/04/30 05:17:55;;;;;;;;;;;17.80;99.90;;;;;;5051553;28;19904;-70
2023/04/30 05:20:21;;;;;;;;;;;17.90;99.90;;;;;;5050782;28;19912;-74
2023/04/30 05:22:47;;;;;;;;;;;17.90;99.90;;;;;;5051245;28;19908;-82
2023/04/30 05:25:13;;;;;;;;;;;18.00;99.90;;;;;;5052867;28;20300;-80
2023/04/30 05:27:39;;;;;;;;;;;18.10;99.90;;;;;;5053219;28;19955;-80
2023/04/30 05:30:05;;;;;;;;;;;18.10;99.90;;;;;;5052720;28;19908;-80
2023/04/30 05:32:34;;;;;;;;;;;18.20;99.90;;;;;;5051882;28;19980;-78
2023/04/30 05:35:00;;;;;;;;;;;18.30;99.90;;;;;;5050480;28;19951;-76
2023/04/30 05:37:26;;;;;;;;;;;18.40;99.90;;;;;;5051169;28;19905;-79
2023/04/30 05:39:54;;;;;;;;;;;18.40;99.90;;;;;;5050060;28;20258;-76
2023/04/30 05:42:21;;;;;;;;;;;18.40;99.90;;;;;;5051583;28;20012;-81
2023/04/30 05:44:48;;;;;;;;;;;18.50;99.90;;;;;;5049925;28;20279;-80
2023/04/30 05:47:13;;;;;;;;;;;18.50;99.90;;;;;;5051621;28;19950;-79
2023/04/30 05:49:39;;;;;;;;;;;18.70;99.90;;;;;;5052406;28;19924;-80
2023/04/30 05:52:05;;;;;;;;;;;18.80;99.90;;;;;;5051092;28;19989;-79
2023/04/30 05:54:31;;;;;;;;;;;18.80;99.90;;;;;;5051940;28;20280;-78
2023/04/30 05:56:57;;;;;;;;;;;18.90;99.90;;;;;;5051323;28;20065;-79
2023/04/30 05:59:23;;;;;;;;;;;18.80;99.90;;;;;;5052439;28;19921;-78
2023/04/30 06:01:48;;;;;;;;;;;18.90;99.90;;;;;;5055624;28;19919;-78
2023/04/30 06:04:14;;;;;;;;;;;18.90;99.90;;;;;;5055600;28;19913;-78
2023/04/30 06:06:40;;;;;;;;;;;18.90;99.90;;;;;;5055263;28;19916;-79
2023/04/30 06:09:06;;;;;;;;;;;19.00;99.90;;;;;;5053270;28;19905;-78
2023/04/30 06:11:32;;;;;;;;;;;19.10;99.90;;;;;;5054169;28;19923;-79
2023/04/30 06:13:58;;;;;;;;;;;18.90;99.90;;;;;;5055175;28;19914;-78
2023/04/30 06:16:24;;;;;;;;;;;18.70;99.90;;;;;;5053853;28;19927;-79
2023/04/30 06:18:50;;;;;;;;;;;18.70;99.90;;;;;;5055411;28;20455;-79
2023/04/30 06:21:16;;;;;;;;;;;18.70;99.90;;;;;;5055094;28;19913;-78
2023/04/30 06:23:41;;;;;;;;;;;18.70;99.90;;;;;;5055347;28;19911;-80
2023/04/30 06:26:08;;;;;;;;;;;18.70;99.90;;;;;;5055291;28;19904;-78
2023/04/30 06:28:34;;;;;;;;;;;18.80;99.90;;;;;;5055898;28;19911;-77
2023/04/30 06:31:00;;;;;;;;;;;18.80;99.90;;;;;;5054119;28;19916;-76
2023/04/30 06:33:26;;;;;;;;;;;18.80;99.90;;;;;;5055498;28;20265;-75
2023/04/30 06:35:54;;;;;;;;;;;18.90;99.90;;;;;;5055004;28;19904;-74
2023/04/30 06:38:20;;;;;;;;;;;18.90;99.90;;;;;;5055121;28;19905;-74
2023/04/30 06:40:46;;;;;;;;;;;19.10;99.90;;;;;;5054370;28;20289;-81
2023/04/30 06:43:12;;;;;;;;;;;19.30;99.90;;;;;;5054873;28;20090;-74
2023/04/30 06:45:38;;;;;;;;;;;19.40;99.90;;;;;;5054790;28;19940;-73
2023/04/30 06:48:04;;;;;;;;;;;19.30;99.90;;;;;;5054637;28;19995;-77
2023/04/30 06:50:30;;;;;;;;;;;19.20;99.90;;;;;;5053106;28;19909;-76
2023/04/30 06:52:56;;;;;;;;;;;19.20;99.90;;;;;;5054694;28;20342;-73
2023/04/30 06:55:22;;;;;;;;;;;19.10;99.90;;;;;;5054335;28;19905;-72
2023/04/30 06:57:48;;;;;;;;;;;19.20;99.90;;;;;;5054397;28;20392;-71
2023/04/30 07:00:14;;;;;;;;;;;19.20;99.90;;;;;;5054291;28;19951;-73
2023/04/30 07:02:40;;;;;;;;;;;19.50;99.90;;;;;;5054135;28;19905;-72
2023/04/30 07:05:06;;;;;;;;;;;19.80;99.90;;;;;;5054551;28;19931;-73
2023/04/30 07:07:32;;;;;;;;;;;20.20;99.90;;;;;;5054170;28;19911;-72
2023/04/30 07:09:58;;;;;;;;;;;20.50;99.90;;;;;;5053678;28;19952;-73
2023/04/30 07:12:24;;;;;;;;;;;20.60;99.90;;;;;;5054286;28;19955;-72
2023/04/30 07:14:52;;;;;;;;;;;20.90;99.90;;;;;;5054205;28;19911;-73
2023/04/30 07:17:18;;;;;;;;;;;21.30;99.90;;;;;;5054113;28;20275;-70
2023/04/30 07:19:44;;;;;;;;;;;21.30;99.90;;;;;;5054012;28;19920;-71
2023/04/30 07:22:10;;;;;;;;;;;21.60;99.90;;;;;;5053675;28;19913;-70
2023/04/30 07:24:36;;;;;;;;;;;21.70;99.90;;;;;;5053717;28;20000;-70
2023/04/30 07:27:02;;;;;;;;;;;21.60;99.90;;;;;;5053977;28;19991;-70
2023/04/30 07:29:28;;;;;;;;;;;21.80;99.90;;;;;;5054033;28;19909;-71
2023/04/30 07:31:55;;;;;;;;;;;22.00;99.90;;;;;;5053803;28;19915;-70
2023/04/30 07:34:21;;;;;;;;;;;22.00;99.90;;;;;;5053731;28;19927;-70
2023/04/30 07:36:47;;;;;;;;;;;22.00;99.90;;;;;;5053335;28;20349;-71
2023/04/30 07:39:13;;;;;;;;;;;21.80;99.90;;;;;;5051791;28;20253;-71
2023/04/30 07:41:39;;;;;;;;;;;21.70;99.90;;;;;;5053301;28;19920;-71
2023/04/30 07:44:05;;;;;;;;;;;21.60;99.90;;;;;;5053490;28;19935;-71
2023/04/30 07:46:31;;;;;;;;;;;21.20;99.90;;;;;;5053357;28;19931;-71
2023/04/30 07:48:57;;;;;;;;;;;21.10;99.90;;;;;;5053320;28;19989;-71
2023/04/30 07:51:22;;;;;;;;;;;21.00;99.90;;;;;;5052855;28;19905;-71
2023/04/30 07:53:48;;;;;;;;;;;20.80;99.90;;;;;;5052943;28;19904;-70
2023/04/30 07:56:14;;;;;;;;;;;20.90;99.90;;;;;;5051674;28;19954;-71
2023/04/30 07:58:40;;;;;;;;;;;20.80;99.90;;;;;;5052696;28;20455;-71
2023/04/30 08:01:06;;;;;;;;;;;20.90;99.90;;;;;;5052760;28;20016;-72
2023/04/30 08:03:32;;;;;;;;;;;20.90;99.90;;;;;;5052956;28;20194;-69
2023/04/30 08:05:58;;;;;;;;;;;21.00;99.90;;;;;;5052578;28;20029;-72
2023/04/30 08:08:24;;;;;;;;;;;21.00;99.90;;;;;;5052955;28;20252;-71
2023/04/30 08:10:50;;;;;;;;;;;21.20;99.90;;;;;;5051989;28;20337;-72
2023/04/30 08:13:15;;;;;;;;;;;21.10;99.90;;;;;;5052641;28;19970;-72
2023/04/30 08:15:41;;;;;;;;;;;21.30;99.90;;;;;;5052670;28;20003;-70
2023/04/30 08:18:08;;;;;;;;;;;21.10;99.90;;;;;;5052393;28;20000;-67
2023/04/30 08:20:34;;;;;;;;;;;20.80;99.90;;;;;;5052637;28;19920;-71
2023/04/30 08:23:00;;;;;;;;;;;20.60;99.90;;;;;;5052206;28;19905;-71
2023/04/30 08:25:26;;;;;;;;;;;20.50;99.90;;;;;;5051587;28;19971;-72
2023/04/30 08:27:51;;;;;;;;;;;20.50;99.90;;;;;;5051674;28;19990;-72
2023/04/30 08:30:20;;;;;;;;;;;20.20;99.90;;;;;;5053074;28;19904;-72
2023/04/30 08:32:49;;;;;;;;;;;20.10;99.90;;;;;;5053046;28;19905;-72
2023/04/30 08:35:18;;;;;;;;;;;20.20;99.90;;;;;;5052921;28;19908;-70
2023/04/30 08:37:44;;;;;;;;;;;20.40;99.90;;;;;;5053554;28;19928;-71
2023/04/30 08:40:11;;;;;;;;;;;20.40;99.90;;;;;;5053362;28;20361;-72
2023/04/30 08:42:40;;;;;;;;;;;20.20;99.90;;;;;;5052904;28;19991;-72
2023/04/30 08:45:07;;;;;;;;;;;20.20;99.90;;;;;;5053788;28;19915;-72
2023/04/30 08:47:33;;;;;;;;;;;20.00;99.90;;;;;;5052970;28;19909;-71
2023/04/30 08:49:59;;;;;;;;;;;20.30;99.90;;;;;;5051477;28;19958;-73
2023/04/30 08:52:27;;;;;;;;;;;20.40;99.90;;;;;;5052321;28;20277;-72
2023/04/30 08:54:54;;;;;;;;;;;20.60;99.90;;;;;;5052081;28;19950;-73
2023/04/30 08:57:19;;;;;;;;;;;20.50;99.90;;;;;;5052261;28;19912;-73
2023/04/30 08:59:48;;;;;;;;;;;20.50;99.90;;;;;;5051084;28;19905;-71
2023/04/30 09:02:14;;;;;;;;;;;20.20;99.90;;;;;;5052304;28;20022;-74
2023/04/30 09:04:40;;;;;;;;;;;19.90;99.90;;;;;;5052545;28;19904;-73
2023/04/30 09:07:06;;;;;;;;;;;19.80;99.90;;;;;;5052211;28;20318;-70
2023/04/30 09:09:36;;;;;;;;;;;19.60;99.90;;;;;;5052558;28;19991;-75
2023/04/30 09:12:28;;;;;;;;;;;19.50;99.90;;;;;;5051468;28;19925;-74
2023/04/30 09:14:58;;;;;;;;;;;19.60;99.90;;;;;;5050535;28;20328;-73
2023/04/30 09:17:24;;;;;;;;;;;19.80;99.90;;;;;;5052488;28;20282;-73
2023/04/30 09:19:51;;;;;;;;;;;19.80;99.90;;;;;;5052363;28;19966;-69
2023/04/30 09:22:20;;;;;;;;;;;19.70;99.90;;;;;;5052111;28;20016;-75
2023/04/30 09:24:47;;;;;;;;;;;19.50;99.90;;;;;;5052239;28;19905;-73
2023/04/30 09:27:20;;;;;;;;;;;19.20;99.90;;;;;;5051949;28;20021;-72
2023/04/30 09:29:46;;;;;;;;;;;19.00;99.90;;;;;;5052060;28;19915;-73
2023/04/30 09:32:12;;;;;;;;;;;19.00;99.90;;;;;;5052086;28;20347;-72
2023/04/30 09:34:39;;;;;;;;;;;18.90;99.90;;;;;;5053807;28;19908;-74
2023/04/30 09:37:06;;;;;;;;;;;18.90;99.90;;;;;;5056120;28;19959;-73
2023/04/30 09:39:32;;;;;;;;;;;18.80;99.90;;;;;;5055997;28;19911;-72
2023/04/30 09:42:08;;;;;;;;;;;18.80;99.90;;;;;;5056857;28;19917;-74
2023/04/30 09:44:38;;;;;;;;;;;18.60;99.90;;;;;;5056096;28;19912;-74
2023/04/30 09:47:04;;;;;;;;;;;18.60;99.90;;;;;;5056478;28;19911;-75
2023/04/30 09:49:30;;;;;;;;;;;18.90;99.90;;;;;;5055914;28;19905;-74
2023/04/30 09:52:02;;;;;;;;;;;18.90;99.90;;;;;;5055811;28;19915;-74
2023/04/30 09:54:28;;;;;;;;;;;19.20;99.90;;;;;;5062629;22;19921;-74
2023/04/30 09:56:58;;;;;;;;;;;19.40;99.90;;;;;;5056201;28;20257;-74
2023/04/30 09:59:38;;;;;;;;;;;19.50;99.90;;;;;;5055754;28;19923;-74
2023/04/30 10:02:05;;;;;;;;;;;19.50;99.90;;;;;;5055699;28;20229;-72
2023/04/30 10:04:35;;;;;;;;;;;19.80;99.90;;;;;;5054164;28;19930;-75
2023/04/30 10:07:06;;;;;;;;;;;19.90;99.90;;;;;;5055988;28;19905;-72
2023/04/30 10:09:35;;;;;;;;;;;19.80;99.90;;;;;;5055511;28;19909;-75
2023/04/30 10:12:03;;;;;;;;;;;19.90;99.90;;;;;;5055921;28;19908;-76
2023/04/30 10:14:29;;;;;;;;;;;20.10;99.90;;;;;;5055434;28;20265;-73
2023/04/30 10:17:10;;;;;;;;;;;20.30;99.90;;;;;;5054056;28;19912;-72
2023/04/30 10:19:40;;;;;;;;;;;20.50;99.90;;;;;;5055786;28;19905;-73
2023/04/30 10:22:07;;;;;;;;;;;20.80;99.90;;;;;;5053786;28;19916;-72
2023/04/30 10:24:33;;;;;;;;;;;20.50;99.90;;;;;;5053642;28;19905;-74
2023/04/30 10:26:59;;;;;;;;;;;20.40;99.90;;;;;;5055372;28;20000;-72
2023/04/30 10:29:25;;;;;;;;;;;20.30;99.90;;;;;;5055218;28;19948;-73
2023/04/30 10:31:52;;;;;;;;;;;20.30;99.90;;;;;;5055404;28;20348;-73
2023/04/30 10:34:36;;;;;;;;;;;20.40;99.90;;;;;;5055452;28;19905;-74
2023/04/30 10:37:15;;;;;;;;;;;20.60;99.90;;;;;;5055556;28;19973;-73
2023/04/30 10:39:41;;;;;;;;;;;20.60;99.90;;;;;;5053720;28;19912;-73
2023/04/30 10:42:09;;;;;;;;;;;20.50;99.90;;;;;;5055217;28;19919;-73
2023/04/30 10:44:37;;;;;;;;;;;20.60;99.90;;;;;;5054838;28;19932;-71
2023/04/30 10:47:05;;;;;;;;;;;20.80;99.90;;;;;;5052825;28;19973;-73
2023/04/30 10:49:31;;;;;;;;;;;20.70;99.90;;;;;;5054933;28;19905;-74
2023/04/30 10:52:02;;;;;;;;;;;20.80;99.90;;;;;;5053457;28;19981;-74
2023/04/30 10:54:29;;;;;;;;;;;20.70;99.90;;;;;;5054292;28;19932;-74
2023/04/30 10:57:13;;;;;;;;;;;20.60;99.90;;;;;;5054592;28;19967;-73
2023/04/30 10:59:44;;;;;;;;;;;20.30;99.90;;;;;;5053104;28;19908;-73
2023/04/30 11:02:11;;;;;;;;;;;20.20;99.90;;;;;;5054292;28;19925;-73
2023/04/30 11:04:56;;;;;;;;;;;20.10;99.90;;;;;;5052846;28;20006;-73
2023/04/30 11:07:24;;;;;;;;;;;20.10;99.90;;;;;;5052964;28;19913;-73
2023/04/30 11:09:55;;;;;;;;;;;20.10;99.90;;;;;;5054121;28;20369;-72
2023/04/30 11:12:27;;;;;;;;;;;20.00;99.90;;;;;;5054583;28;19951;-73
2023/04/30 11:14:59;;;;;;;;;;;19.90;99.90;;;;;;5054046;28;19905;-73
2023/04/30 11:17:26;;;;;;;;;;;19.80;99.90;;;;;;5054154;28;19908;-73
2023/04/30 11:19:53;;;;;;;;;;;19.40;99.90;;;;;;5054087;28;19904;-73
2023/04/30 11:22:20;;;;;;;;;;;19.30;99.90;;;;;;5053921;28;19935;-73
2023/04/30 11:24:54;;;;;;;;;;;19.40;99.90;;;;;;5053790;28;20333;-73
2023/04/30 11:27:24;;;;;;;;;;;19.20;99.90;;;;;;5053994;28;19974;-75
2023/04/30 11:29:51;;;;;;;;;;;19.20;99.90;;;;;;5054021;28;19970;-72
2023/04/30 11:32:20;;;;;;;;;;;19.30;99.90;;;;;;5054364;28;19905;-72
2023/04/30 11:34:47;;;;;;;;;;;19.50;99.90;;;;;;5053503;28;19926;-73
2023/04/30 11:37:18;;;;;;;;;;;19.20;99.90;;;;;;5053587;28;19916;-72
2023/04/30 11:39:44;;;;;;;;;;;18.80;99.90;;;;;;5053597;28;19905;-75
2023/04/30 11:42:14;;;;;;;;;;;18.60;99.90;;;;;;5053336;28;20073;-73
2023/04/30 11:44:40;;;;;;;;;;;18.80;99.90;;;;;;5053864;28;19936;-73
2023/04/30 11:47:06;;;;;;;;;;;19.00;99.90;;;;;;5053558;28;19916;-74
2023/04/30 11:49:32;;;;;;;;;;;19.20;99.90;;;;;;5053351;28;20353;-73
2023/04/30 11:51:58;;;;;;;;;;;19.20;99.90;;;;;;5053299;28;19905;-73
2023/04/30 11:54:24;;;;;;;;;;;19.20;99.90;;;;;;5053360;28;19924;-74
2023/04/30 11:56:51;;;;;;;;;;;19.10;99.90;;;;;;5050919;28;19912;-73
2023/04/30 11:59:18;;;;;;;;;;;19.10;99.90;;;;;;5053441;28;19904;-73
2023/04/30 12:01:44;;;;;;;;;;;19.20;99.90;;;;;;5052858;28;19920;-73
2023/04/30 12:04:10;;;;;;;;;;;19.40;99.90;;;;;;5052789;28;19909;-73
2023/04/30 12:06:41;;;;;;;;;;;19.60;99.90;;;;;;5053313;28;19905;-70
2023/04/30 12:09:08;;;;;;;;;;;19.70;99.90;;;;;;5053150;28;20356;-74
2023/04/30 12:11:34;;;;;;;;;;;19.60;99.90;;;;;;5052831;28;20345;-74
2023/04/30 12:14:06;;;;;;;;;;;19.50;99.90;;;;;;5053053;28;20268;-74
2023/04/30 12:16:59;;;;;;;;;;;19.70;99.90;;;;;;5052809;28;19911;-75
2023/04/30 12:19:24;;;;;;;;;;;19.60;99.90;;;;;;5051984;28;19904;-74
2023/04/30 12:21:53;;;;;;;;;;;19.40;99.90;;;;;;5052601;28;20031;-74
2023/04/30 12:24:19;;;;;;;;;;;19.50;99.90;;;;;;5052694;28;19905;-73
2023/04/30 12:26:46;;;;;;;;;;;19.50;99.90;;;;;;5052334;28;19927;-73
2023/04/30 12:29:16;;;;;;;;;;;19.50;99.90;;;;;;5052625;28;19966;-73
2023/04/30 12:31:42;;;;;;;;;;;19.40;99.90;;;;;;5052604;28;19912;-73
2023/04/30 12:34:09;;;;;;;;;;;19.20;99.90;;;;;;5052279;28;19923;-71
2023/04/30 12:36:38;;;;;;;;;;;19.20;99.90;;;;;;5052576;28;19904;-73
2023/04/30 12:39:09;;;;;;;;;;;19.20;99.90;;;;;;5052342;28;19905;-73
2023/04/30 12:41:37;;;;;;;;;;;19.40;99.90;;;;;;5051975;28;19912;-73
2023/04/30 12:44:19;;;;;;;;;;;19.50;99.90;;;;;;5052100;28;19909;-72
2023/04/30 12:46:46;;;;;;;;;;;19.60;99.90;;;;;;5052110;28;19905;-72
2023/04/30 12:49:11;;;;;;;;;;;19.60;99.90;;;;;;5052405;28;19912;-72
2023/04/30 12:51:42;;;;;;;;;;;19.70;99.90;;;;;;5051946;28;19905;-72
2023/04/30 12:54:08;;;;;;;;;;;19.50;99.90;;;;;;5051728;28;19923;-73
2023/04/30 12:56:34;;;;;;;;;;;19.40;99.90;;;;;;5050457;28;19999;-73
2023/04/30 12:59:00;;;;;;;;;;;19.40;99.90;;;;;;5051971;28;19999;-71
2023/04/30 13:01:26;;;;;;;;;;;19.20;99.90;;;;;;5052015;28;20016;-73
2023/04/30 13:03:52;;;;;;;;;;;19.30;99.90;;;;;;5050635;28;20292;-73
2023/04/30 13:06:23;;;;;;;;;;;19.60;99.90;;;;;;5050409;28;20391;-73
2023/04/30 13:08:49;;;;;;;;;;;19.70;99.90;;;;;;5051460;28;19991;-74
2023/04/30 13:11:18;;;;;;;;;;;19.80;99.90;;;;;;5051825;28;19944;-74
2023/04/30 13:13:44;;;;;;;;;;;20.10;99.90;;;;;;5052029;28;19995;-74
2023/04/30 13:16:10;;;;;;;;;;;20.30;99.90;;;;;;5051929;28;19909;-74
2023/04/30 13:18:36;;;;;;;;;;;20.50;99.90;;;;;;5052045;28;19999;-75
2023/04/30 13:21:17;;;;;;;;;;;20.50;99.90;;;;;;5052478;28;19964;-74
2023/04/30 13:23:43;;;;;;;;;;;20.60;99.90;;;;;;5052238;28;19913;-74
2023/04/30 13:26:08;;;;;;;;;;;20.80;99.90;;;;;;5051869;28;19911;-73
2023/04/30 13:28:34;;;;;;;;;;;21.10;99.90;;;;;;5050601;28;20250;-74
2023/04/30 13:31:01;;;;;;;;;;;21.10;99.90;;;;;;5052141;28;20011;-72
2023/04/30 13:33:27;;;;;;;;;;;21.10;99.90;;;;;;5051883;28;19912;-75
2023/04/30 13:35:53;;;;;;;;;;;21.40;99.90;;;;;;5052121;28;19905;-72
2023/04/30 13:38:18;;;;;;;;;;;21.50;99.90;;;;;;5051961;28;20051;-72
2023/04/30 13:40:44;;;;;;;;;;;21.80;99.90;;;;;;5051804;28;20361;-73
2023/04/30 13:43:10;;;;;;;;;;;21.70;99.90;;;;;;5051663;28;19915;-73
2023/04/30 13:45:36;;;;;;;;;;;22.00;99.90;;;;;;5051546;28;19974;-72
2023/04/30 13:48:02;;;;;;;;;;;22.40;99.90;;;;;;5051593;28;20319;-73
2023/04/30 13:50:27;;;;;;;;;;;22.40;99.90;;;;;;5051330;28;20000;-72
2023/04/30 13:52:53;;;;;;;;;;;22.60;99.90;;;;;;5051305;28;20270;-74
2023/04/30 13:55:19;;;;;;;;;;;22.80;99.90;;;;;;5051048;28;19964;-73
2023/04/30 13:57:45;;;;;;;;;;;22.90;99.90;;;;;;5051437;28;19967;-73
2023/04/30 14:00:11;;;;;;;;;;;22.90;99.90;;;;;;5050962;28;20039;-69
2023/04/30 14:02:37;;;;;;;;;;;22.80;99.90;;;;;;5051275;28;20380;-74
2023/04/30 14:05:03;;;;;;;;;;;22.50;99.90;;;;;;5051309;28;19905;-74
2023/04/30 14:07:30;;;;;;;;;;;22.40;99.90;;;;;;5049584;28;19905;-75
2023/04/30 14:09:55;;;;;;;;;;;22.30;99.90;;;;;;5051564;28;20276;-73
2023/04/30 14:12:22;;;;;;;;;;;21.90;99.90;;;;;;5052031;28;20356;-75
2023/04/30 14:14:49;;;;;;;;;;;21.90;99.90;;;;;;5052726;28;20094;-72
2023/04/30 14:17:14;;;;;;;;;;;21.70;99.90;;;;;;5052789;28;19913;-76